sensor_id;sensor_type;location;lat;lon;timestamp;P1;durP1;ratioP1;P2;durP2;ratioP2
38089;SDS011;23904;52.322;10.232;2023-04-06T00:01:40;15.25;;;8.38;;
38089;SDS011;23904;52.322;10.232;2023-04-06T00:04:06;13.57;;;8.90;;
38089;SDS011;23904;52.322;10.232;2023-04-06T00:06:32;13.90;;;8.55;;
38089;SDS011;23904;52.322;10.232;2023-04-06T00:08:58;14.65;;;7.85;;
38089;SDS011;23904;52.322;10.232;2023-04-06T00:11:25;18.50;;;9.50;;
38089;SDS011;23904;52.322;10.232;2023-04-06T00:13:51;17.80;;;9.82;;
38089;SDS011;23904;52.322;10.232;2023-04-06T00:16:17;21.95;;;10.05;;
38089;SDS011;23904;52.322;10.232;2023-04-06T00:18:43;24.73;;;12.07;;
38089;SDS011;23904;52.322;10.232;2023-04-06T00:21:11;25.92;;;12.00;;
38089;SDS011;23904;52.322;10.232;2023-04-06T00:23:38;23.10;;;10.82;;
38089;SDS011;23904;52.322;10.232;2023-04-06T00:26:03;25.17;;;11.82;;
38089;SDS011;23904;52.322;10.232;2023-04-06T00:28:29;22.75;;;11.73;;
38089;SDS011;23904;52.322;10.232;2023-04-06T00:30:55;20.73;;;10.73;;
38089;SDS011;23904;52.322;10.232;2023-04-06T00:33:20;16.83;;;10.38;;
38089;SDS011;23904;52.322;10.232;2023-04-06T00:35:47;20.83;;;10.25;;
38089;SDS011;23904;52.322;10.232;2023-04-06T00:38:13;19.55;;;10.02;;
38089;SDS011;23904;52.322;10.232;2023-04-06T00:40:40;19.15;;;11.00;;
38089;SDS011;23904;52.322;10.232;2023-04-06T00:43:06;26.25;;;11.88;;
38089;SDS011;23904;52.322;10.232;2023-04-06T00:45:32;14.50;;;10.07;;
38089;SDS011;23904;52.322;10.232;2023-04-06T00:47:58;17.90;;;10.43;;
38089;SDS011;23904;52.322;10.232;2023-04-06T00:50:24;18.73;;;10.18;;
38089;SDS011;23904;52.322;10.232;2023-04-06T00:52:50;17.13;;;10.68;;
38089;SDS011;23904;52.322;10.232;2023-04-06T00:55:16;20.25;;;10.48;;
38089;SDS011;23904;52.322;10.232;2023-04-06T00:57:42;22.67;;;11.20;;
38089;SDS011;23904;52.322;10.232;2023-04-06T01:00:08;20.42;;;11.38;;
38089;SDS011;23904;52.322;10.232;2023-04-06T01:02:35;16.50;;;10.35;;
38089;SDS011;23904;52.322;10.232;2023-04-06T01:05:01;23.33;;;10.75;;
38089;SDS011;23904;52.322;10.232;2023-04-06T01:07:27;18.90;;;10.95;;
38089;SDS011;23904;52.322;10.232;2023-04-06T01:09:53;21.65;;;10.63;;
38089;SDS011;23904;52.322;10.232;2023-04-06T01:12:19;23.35;;;10.32;;
38089;SDS011;23904;52.322;10.232;2023-04-06T01:14:45;17.23;;;9.43;;
38089;SDS011;23904;52.322;10.232;2023-04-06T01:17:10;17.70;;;9.93;;
38089;SDS011;23904;52.322;10.232;2023-04-06T01:19:36;20.90;;;10.45;;
38089;SDS011;23904;52.322;10.232;2023-04-06T01:22:02;22.58;;;10.00;;
38089;SDS011;23904;52.322;10.232;2023-04-06T01:24:27;18.27;;;9.13;;
38089;SDS011;23904;52.322;10.232;2023-04-06T01:26:53;20.33;;;9.00;;
38089;SDS011;23904;52.322;10.232;2023-04-06T01:29:18;19.00;;;9.88;;
38089;SDS011;23904;52.322;10.232;2023-04-06T01:31:44;26.45;;;9.45;;
38089;SDS011;23904;52.322;10.232;2023-04-06T01:34:10;15.48;;;9.15;;
38089;SDS011;23904;52.322;10.232;2023-04-06T01:36:35;17.20;;;9.98;;
38089;SDS011;23904;52.322;10.232;2023-04-06T01:39:01;23.33;;;9.00;;
38089;SDS011;23904;52.322;10.232;2023-04-06T01:41:26;19.00;;;9.60;;
38089;SDS011;23904;52.322;10.232;2023-04-06T01:43:52;18.05;;;9.25;;
38089;SDS011;23904;52.322;10.232;2023-04-06T01:46:19;21.58;;;10.23;;
38089;SDS011;23904;52.322;10.232;2023-04-06T01:48:45;20.52;;;9.23;;
38089;SDS011;23904;52.322;10.232;2023-04-06T01:51:10;17.08;;;8.98;;
38089;SDS011;23904;52.322;10.232;2023-04-06T01:53:36;14.82;;;8.95;;
38089;SDS011;23904;52.322;10.232;2023-04-06T01:56:02;20.05;;;9.30;;
38089;SDS011;23904;52.322;10.232;2023-04-06T01:58:27;19.02;;;8.85;;
38089;SDS011;23904;52.322;10.232;2023-04-06T02:00:53;16.60;;;8.40;;
38089;SDS011;23904;52.322;10.232;2023-04-06T02:03:19;20.02;;;8.98;;
38089;SDS011;23904;52.322;10.232;2023-04-06T02:05:44;17.60;;;9.13;;
38089;SDS011;23904;52.322;10.232;2023-04-06T02:08:10;19.50;;;9.15;;
38089;SDS011;23904;52.322;10.232;2023-04-06T02:10:36;15.45;;;8.80;;
38089;SDS011;23904;52.322;10.232;2023-04-06T02:13:04;14.60;;;8.88;;
38089;SDS011;23904;52.322;10.232;2023-04-06T02:15:30;17.50;;;8.65;;
38089;SDS011;23904;52.322;10.232;2023-04-06T02:17:57;18.48;;;9.63;;
38089;SDS011;23904;52.322;10.232;2023-04-06T02:20:23;20.85;;;9.60;;
38089;SDS011;23904;52.322;10.232;2023-04-06T02:22:49;15.02;;;8.60;;
38089;SDS011;23904;52.322;10.232;2023-04-06T02:25:15;15.75;;;8.40;;
38089;SDS011;23904;52.322;10.232;2023-04-06T02:27:40;20.10;;;9.32;;
38089;SDS011;23904;52.322;10.232;2023-04-06T02:30:06;15.10;;;8.45;;
38089;SDS011;23904;52.322;10.232;2023-04-06T02:32:33;20.30;;;8.73;;
38089;SDS011;23904;52.322;10.232;2023-04-06T02:34:59;18.65;;;9.05;;
38089;SDS011;23904;52.322;10.232;2023-04-06T02:37:25;18.35;;;9.43;;
38089;SDS011;23904;52.322;10.232;2023-04-06T02:39:51;16.42;;;8.30;;
38089;SDS011;23904;52.322;10.232;2023-04-06T02:42:19;19.88;;;10.13;;
38089;SDS011;23904;52.322;10.232;2023-04-06T02:44:45;16.92;;;9.25;;
38089;SDS011;23904;52.322;10.232;2023-04-06T02:47:10;23.27;;;10.45;;
38089;SDS011;23904;52.322;10.232;2023-04-06T02:49:36;22.27;;;9.52;;
38089;SDS011;23904;52.322;10.232;2023-04-06T02:52:02;19.25;;;9.50;;
38089;SDS011;23904;52.322;10.232;2023-04-06T02:54:28;25.95;;;9.43;;
38089;SDS011;23904;52.322;10.232;2023-04-06T02:56:54;29.15;;;10.20;;
38089;SDS011;23904;52.322;10.232;2023-04-06T02:59:19;23.10;;;9.13;;
38089;SDS011;23904;52.322;10.232;2023-04-06T03:01:46;18.65;;;8.60;;
38089;SDS011;23904;52.322;10.232;2023-04-06T03:04:11;18.63;;;8.13;;
38089;SDS011;23904;52.322;10.232;2023-04-06T03:06:37;19.30;;;8.25;;
38089;SDS011;23904;52.322;10.232;2023-04-06T03:09:03;14.90;;;7.40;;
38089;SDS011;23904;52.322;10.232;2023-04-06T03:11:28;17.30;;;7.57;;
38089;SDS011;23904;52.322;10.232;2023-04-06T03:13:54;16.48;;;8.25;;
38089;SDS011;23904;52.322;10.232;2023-04-06T03:16:20;11.07;;;6.55;;
38089;SDS011;23904;52.322;10.232;2023-04-06T03:18:45;13.93;;;6.00;;
38089;SDS011;23904;52.322;10.232;2023-04-06T03:21:12;12.63;;;6.53;;
38089;SDS011;23904;52.322;10.232;2023-04-06T03:23:41;14.13;;;6.88;;
38089;SDS011;23904;52.322;10.232;2023-04-06T03:26:07;12.77;;;6.57;;
38089;SDS011;23904;52.322;10.232;2023-04-06T03:28:33;10.95;;;6.20;;
38089;SDS011;23904;52.322;10.232;2023-04-06T03:30:58;14.15;;;6.50;;
38089;SDS011;23904;52.322;10.232;2023-04-06T03:33:24;14.52;;;6.75;;
38089;SDS011;23904;52.322;10.232;2023-04-06T03:35:52;13.20;;;7.65;;
38089;SDS011;23904;52.322;10.232;2023-04-06T03:38:20;13.75;;;7.25;;
38089;SDS011;23904;52.322;10.232;2023-04-06T03:40:45;16.40;;;7.05;;
38089;SDS011;23904;52.322;10.232;2023-04-06T03:43:11;16.20;;;8.50;;
38089;SDS011;23904;52.322;10.232;2023-04-06T03:45:37;13.57;;;6.93;;
38089;SDS011;23904;52.322;10.232;2023-04-06T03:48:03;13.02;;;7.50;;
38089;SDS011;23904;52.322;10.232;2023-04-06T03:50:30;23.52;;;8.57;;
38089;SDS011;23904;52.322;10.232;2023-04-06T03:52:56;17.50;;;8.23;;
38089;SDS011;23904;52.322;10.232;2023-04-06T03:55:22;20.13;;;8.38;;
38089;SDS011;23904;52.322;10.232;2023-04-06T03:57:47;16.10;;;8.02;;
38089;SDS011;23904;52.322;10.232;2023-04-06T04:00:13;15.82;;;7.72;;
38089;SDS011;23904;52.322;10.232;2023-04-06T04:02:39;15.98;;;7.40;;
38089;SDS011;23904;52.322;10.232;2023-04-06T04:05:05;18.70;;;6.85;;
38089;SDS011;23904;52.322;10.232;2023-04-06T04:07:31;14.75;;;7.97;;
38089;SDS011;23904;52.322;10.232;2023-04-06T04:09:57;18.38;;;8.57;;
38089;SDS011;23904;52.322;10.232;2023-04-06T04:12:23;12.70;;;7.22;;
38089;SDS011;23904;52.322;10.232;2023-04-06T04:14:48;12.73;;;7.03;;
38089;SDS011;23904;52.322;10.232;2023-04-06T04:17:14;19.85;;;7.72;;
38089;SDS011;23904;52.322;10.232;2023-04-06T04:19:40;13.40;;;6.63;;
38089;SDS011;23904;52.322;10.232;2023-04-06T04:22:05;15.10;;;7.57;;
38089;SDS011;23904;52.322;10.232;2023-04-06T04:24:31;14.68;;;7.32;;
38089;SDS011;23904;52.322;10.232;2023-04-06T04:26:57;15.52;;;7.13;;
38089;SDS011;23904;52.322;10.232;2023-04-06T04:29:23;14.50;;;6.40;;
38089;SDS011;23904;52.322;10.232;2023-04-06T04:31:48;15.70;;;7.07;;
38089;SDS011;23904;52.322;10.232;2023-04-06T04:34:15;16.60;;;8.15;;
38089;SDS011;23904;52.322;10.232;2023-04-06T04:36:41;18.85;;;8.80;;
38089;SDS011;23904;52.322;10.232;2023-04-06T04:39:09;18.20;;;8.10;;
38089;SDS011;23904;52.322;10.232;2023-04-06T04:41:35;21.55;;;8.10;;
38089;SDS011;23904;52.322;10.232;2023-04-06T04:44:01;21.63;;;8.88;;
38089;SDS011;23904;52.322;10.232;2023-04-06T04:46:26;15.05;;;8.23;;
38089;SDS011;23904;52.322;10.232;2023-04-06T04:48:52;14.93;;;7.60;;
38089;SDS011;23904;52.322;10.232;2023-04-06T04:51:18;20.42;;;8.00;;
38089;SDS011;23904;52.322;10.232;2023-04-06T04:53:45;19.20;;;9.38;;
38089;SDS011;23904;52.322;10.232;2023-04-06T04:56:10;29.40;;;8.88;;
38089;SDS011;23904;52.322;10.232;2023-04-06T04:58:36;21.38;;;8.85;;
38089;SDS011;23904;52.322;10.232;2023-04-06T05:01:01;22.80;;;8.43;;
38089;SDS011;23904;52.322;10.232;2023-04-06T05:03:27;17.23;;;8.23;;
38089;SDS011;23904;52.322;10.232;2023-04-06T05:05:52;14.80;;;7.80;;
38089;SDS011;23904;52.322;10.232;2023-04-06T05:08:18;19.35;;;8.70;;
38089;SDS011;23904;52.322;10.232;2023-04-06T05:10:43;15.77;;;8.77;;
38089;SDS011;23904;52.322;10.232;2023-04-06T05:13:10;18.45;;;9.70;;
38089;SDS011;23904;52.322;10.232;2023-04-06T05:15:36;14.80;;;8.35;;
38089;SDS011;23904;52.322;10.232;2023-04-06T05:18:05;13.15;;;7.95;;
38089;SDS011;23904;52.322;10.232;2023-04-06T05:20:32;11.43;;;7.80;;
38089;SDS011;23904;52.322;10.232;2023-04-06T05:22:58;15.50;;;7.80;;
38089;SDS011;23904;52.322;10.232;2023-04-06T05:25:24;18.83;;;9.35;;
38089;SDS011;23904;52.322;10.232;2023-04-06T05:27:50;12.48;;;7.38;;
38089;SDS011;23904;52.322;10.232;2023-04-06T05:30:16;15.82;;;7.78;;
38089;SDS011;23904;52.322;10.232;2023-04-06T05:32:45;13.95;;;8.32;;
38089;SDS011;23904;52.322;10.232;2023-04-06T05:35:11;14.07;;;7.63;;
38089;SDS011;23904;52.322;10.232;2023-04-06T05:37:37;17.02;;;8.25;;
38089;SDS011;23904;52.322;10.232;2023-04-06T05:40:03;13.20;;;7.20;;
38089;SDS011;23904;52.322;10.232;2023-04-06T05:42:36;16.73;;;8.93;;
38089;SDS011;23904;52.322;10.232;2023-04-06T05:45:07;18.45;;;8.07;;
38089;SDS011;23904;52.322;10.232;2023-04-06T05:47:35;15.35;;;8.27;;
38089;SDS011;23904;52.322;10.232;2023-04-06T05:50:02;12.57;;;8.05;;
38089;SDS011;23904;52.322;10.232;2023-04-06T05:52:28;15.85;;;8.50;;
38089;SDS011;23904;52.322;10.232;2023-04-06T05:54:53;13.75;;;7.78;;
38089;SDS011;23904;52.322;10.232;2023-04-06T05:57:19;17.75;;;8.50;;
38089;SDS011;23904;52.322;10.232;2023-04-06T05:59:45;17.35;;;8.45;;
38089;SDS011;23904;52.322;10.232;2023-04-06T06:02:10;17.15;;;9.07;;
38089;SDS011;23904;52.322;10.232;2023-04-06T06:04:36;14.05;;;8.73;;
38089;SDS011;23904;52.322;10.232;2023-04-06T06:07:02;18.33;;;10.35;;
38089;SDS011;23904;52.322;10.232;2023-04-06T06:09:27;26.08;;;8.10;;
38089;SDS011;23904;52.322;10.232;2023-04-06T06:11:53;18.00;;;9.73;;
38089;SDS011;23904;52.322;10.232;2023-04-06T06:14:18;16.55;;;9.35;;
38089;SDS011;23904;52.322;10.232;2023-04-06T06:16:44;17.42;;;9.52;;
38089;SDS011;23904;52.322;10.232;2023-04-06T06:19:10;15.82;;;9.50;;
38089;SDS011;23904;52.322;10.232;2023-04-06T06:21:36;18.73;;;9.57;;
38089;SDS011;23904;52.322;10.232;2023-04-06T06:24:01;18.52;;;11.00;;
38089;SDS011;23904;52.322;10.232;2023-04-06T06:26:27;26.30;;;10.05;;
38089;SDS011;23904;52.322;10.232;2023-04-06T06:28:53;21.77;;;10.90;;
38089;SDS011;23904;52.322;10.232;2023-04-06T06:31:19;19.77;;;9.73;;
38089;SDS011;23904;52.322;10.232;2023-04-06T06:33:48;22.98;;;11.77;;
38089;SDS011;23904;52.322;10.232;2023-04-06T06:36:17;24.67;;;11.77;;
38089;SDS011;23904;52.322;10.232;2023-04-06T06:38:43;23.42;;;12.30;;
38089;SDS011;23904;52.322;10.232;2023-04-06T06:41:10;25.77;;;12.88;;
38089;SDS011;23904;52.322;10.232;2023-04-06T06:43:36;25.42;;;12.77;;
38089;SDS011;23904;52.322;10.232;2023-04-06T06:46:02;21.17;;;13.25;;
38089;SDS011;23904;52.322;10.232;2023-04-06T06:48:28;28.45;;;12.07;;
38089;SDS011;23904;52.322;10.232;2023-04-06T06:50:54;19.77;;;11.63;;
38089;SDS011;23904;52.322;10.232;2023-04-06T06:53:20;26.70;;;12.70;;
38089;SDS011;23904;52.322;10.232;2023-04-06T06:55:46;27.83;;;11.77;;
38089;SDS011;23904;52.322;10.232;2023-04-06T06:58:13;21.05;;;10.98;;
38089;SDS011;23904;52.322;10.232;2023-04-06T07:00:39;20.08;;;10.93;;
38089;SDS011;23904;52.322;10.232;2023-04-06T07:03:05;26.98;;;10.80;;
38089;SDS011;23904;52.322;10.232;2023-04-06T07:05:31;25.60;;;11.32;;
38089;SDS011;23904;52.322;10.232;2023-04-06T07:07:56;22.77;;;9.85;;
38089;SDS011;23904;52.322;10.232;2023-04-06T07:10:22;17.65;;;9.60;;
38089;SDS011;23904;52.322;10.232;2023-04-06T07:12:48;23.30;;;9.55;;
38089;SDS011;23904;52.322;10.232;2023-04-06T07:15:13;18.90;;;10.57;;
38089;SDS011;23904;52.322;10.232;2023-04-06T07:17:39;20.35;;;9.95;;
38089;SDS011;23904;52.322;10.232;2023-04-06T07:20:10;25.70;;;11.20;;
38089;SDS011;23904;52.322;10.232;2023-04-06T07:22:40;22.75;;;11.05;;
38089;SDS011;23904;52.322;10.232;2023-04-06T07:25:08;23.05;;;10.65;;
38089;SDS011;23904;52.322;10.232;2023-04-06T07:27:34;17.83;;;9.02;;
38089;SDS011;23904;52.322;10.232;2023-04-06T07:29:59;16.00;;;8.88;;
38089;SDS011;23904;52.322;10.232;2023-04-06T07:32:25;15.27;;;8.32;;
38089;SDS011;23904;52.322;10.232;2023-04-06T07:34:50;15.57;;;9.10;;
38089;SDS011;23904;52.322;10.232;2023-04-06T07:37:16;16.83;;;8.88;;
38089;SDS011;23904;52.322;10.232;2023-04-06T07:39:42;16.00;;;8.93;;
38089;SDS011;23904;52.322;10.232;2023-04-06T07:42:07;15.70;;;8.57;;
38089;SDS011;23904;52.322;10.232;2023-04-06T07:44:33;18.55;;;9.45;;
38089;SDS011;23904;52.322;10.232;2023-04-06T07:46:58;20.23;;;9.73;;
38089;SDS011;23904;52.322;10.232;2023-04-06T07:49:24;18.30;;;9.10;;
38089;SDS011;23904;52.322;10.232;2023-04-06T07:51:49;20.98;;;10.18;;
38089;SDS011;23904;52.322;10.232;2023-04-06T07:54:15;18.83;;;10.60;;
38089;SDS011;23904;52.322;10.232;2023-04-06T07:56:41;25.02;;;13.57;;
38089;SDS011;23904;52.322;10.232;2023-04-06T07:59:06;13.32;;;7.80;;
38089;SDS011;23904;52.322;10.232;2023-04-06T08:01:32;29.02;;;11.35;;
38089;SDS011;23904;52.322;10.232;2023-04-06T08:03:58;17.33;;;8.45;;
38089;SDS011;23904;52.322;10.232;2023-04-06T08:06:23;15.38;;;8.30;;
38089;SDS011;23904;52.322;10.232;2023-04-06T08:08:49;12.05;;;7.18;;
38089;SDS011;23904;52.322;10.232;2023-04-06T08:11:15;12.20;;;7.95;;
38089;SDS011;23904;52.322;10.232;2023-04-06T08:13:41;10.52;;;7.20;;
38089;SDS011;23904;52.322;10.232;2023-04-06T08:16:07;13.35;;;7.55;;
38089;SDS011;23904;52.322;10.232;2023-04-06T08:18:33;15.07;;;7.70;;
38089;SDS011;23904;52.322;10.232;2023-04-06T08:20:58;13.15;;;7.55;;
38089;SDS011;23904;52.322;10.232;2023-04-06T08:23:24;14.18;;;7.97;;
38089;SDS011;23904;52.322;10.232;2023-04-06T08:25:50;14.25;;;7.40;;
38089;SDS011;23904;52.322;10.232;2023-04-06T08:28:18;15.00;;;6.47;;
38089;SDS011;23904;52.322;10.232;2023-04-06T08:30:43;14.38;;;7.82;;
38089;SDS011;23904;52.322;10.232;2023-04-06T08:33:10;13.48;;;7.80;;
38089;SDS011;23904;52.322;10.232;2023-04-06T08:35:36;10.68;;;6.97;;
38089;SDS011;23904;52.322;10.232;2023-04-06T08:38:02;10.98;;;7.30;;
38089;SDS011;23904;52.322;10.232;2023-04-06T08:40:28;9.25;;;6.40;;
38089;SDS011;23904;52.322;10.232;2023-04-06T08:42:56;13.00;;;7.70;;
38089;SDS011;23904;52.322;10.232;2023-04-06T08:45:27;8.70;;;6.40;;
38089;SDS011;23904;52.322;10.232;2023-04-06T08:47:52;11.80;;;6.45;;
38089;SDS011;23904;52.322;10.232;2023-04-06T08:50:21;14.43;;;8.02;;
38089;SDS011;23904;52.322;10.232;2023-04-06T08:52:48;10.13;;;6.88;;
38089;SDS011;23904;52.322;10.232;2023-04-06T08:55:14;13.85;;;8.10;;
38089;SDS011;23904;52.322;10.232;2023-04-06T08:57:41;14.27;;;8.30;;
38089;SDS011;23904;52.322;10.232;2023-04-06T09:00:07;10.60;;;6.80;;
38089;SDS011;23904;52.322;10.232;2023-04-06T09:02:39;9.93;;;6.47;;
38089;SDS011;23904;52.322;10.232;2023-04-06T09:05:08;9.23;;;6.90;;
38089;SDS011;23904;52.322;10.232;2023-04-06T09:07:37;10.60;;;8.05;;
38089;SDS011;23904;52.322;10.232;2023-04-06T09:10:04;11.20;;;7.70;;
38089;SDS011;23904;52.322;10.232;2023-04-06T09:12:31;11.60;;;7.55;;
38089;SDS011;23904;52.322;10.232;2023-04-06T09:14:57;8.90;;;7.25;;
38089;SDS011;23904;52.322;10.232;2023-04-06T09:17:29;9.23;;;7.07;;
38089;SDS011;23904;52.322;10.232;2023-04-06T09:19:57;14.88;;;7.32;;
38089;SDS011;23904;52.322;10.232;2023-04-06T09:22:25;17.00;;;7.90;;
38089;SDS011;23904;52.322;10.232;2023-04-06T09:25:00;15.25;;;8.02;;
38089;SDS011;23904;52.322;10.232;2023-04-06T09:27:29;11.02;;;7.47;;
38089;SDS011;23904;52.322;10.232;2023-04-06T09:30:06;15.45;;;7.32;;
38089;SDS011;23904;52.322;10.232;2023-04-06T09:35:33;12.20;;;7.30;;
38089;SDS011;23904;52.322;10.232;2023-04-06T09:37:58;20.98;;;11.93;;
38089;SDS011;23904;52.322;10.232;2023-04-06T09:40:24;13.73;;;7.82;;
38089;SDS011;23904;52.322;10.232;2023-04-06T09:42:50;13.98;;;8.23;;
38089;SDS011;23904;52.322;10.232;2023-04-06T09:45:17;11.65;;;7.63;;
38089;SDS011;23904;52.322;10.232;2023-04-06T09:47:43;13.75;;;8.60;;
38089;SDS011;23904;52.322;10.232;2023-04-06T09:50:11;11.02;;;7.40;;
38089;SDS011;23904;52.322;10.232;2023-04-06T09:55:21;13.63;;;8.10;;
38089;SDS011;23904;52.322;10.232;2023-04-06T09:58:05;9.77;;;6.80;;
38089;SDS011;23904;52.322;10.232;2023-04-06T10:00:47;13.32;;;7.65;;
38089;SDS011;23904;52.322;10.232;2023-04-06T10:06:48;9.18;;;7.60;;
38089;SDS011;23904;52.322;10.232;2023-04-06T10:09:17;11.20;;;7.80;;
38089;SDS011;23904;52.322;10.232;2023-04-06T10:11:46;11.38;;;7.28;;
38089;SDS011;23904;52.322;10.232;2023-04-06T10:14:13;11.00;;;7.72;;
38089;SDS011;23904;52.322;10.232;2023-04-06T10:16:40;9.57;;;7.32;;
38089;SDS011;23904;52.322;10.232;2023-04-06T10:19:10;9.30;;;7.03;;
38089;SDS011;23904;52.322;10.232;2023-04-06T10:21:45;11.00;;;7.15;;
38089;SDS011;23904;52.322;10.232;2023-04-06T10:24:15;9.52;;;7.28;;
38089;SDS011;23904;52.322;10.232;2023-04-06T10:26:42;11.40;;;7.05;;
38089;SDS011;23904;52.322;10.232;2023-04-06T10:29:07;9.48;;;7.95;;
38089;SDS011;23904;52.322;10.232;2023-04-06T10:31:39;9.25;;;7.47;;
38089;SDS011;23904;52.322;10.232;2023-04-06T10:34:08;8.90;;;7.45;;
38089;SDS011;23904;52.322;10.232;2023-04-06T10:36:33;12.52;;;7.20;;
38089;SDS011;23904;52.322;10.232;2023-04-06T10:39:00;8.73;;;7.00;;
38089;SDS011;23904;52.322;10.232;2023-04-06T10:41:44;7.82;;;6.95;;
38089;SDS011;23904;52.322;10.232;2023-04-06T10:44:22;7.55;;;6.80;;
38089;SDS011;23904;52.322;10.232;2023-04-06T10:46:59;8.75;;;7.22;;
38089;SDS011;23904;52.322;10.232;2023-04-06T10:49:28;10.57;;;7.95;;
38089;SDS011;23904;52.322;10.232;2023-04-06T10:51:54;8.88;;;7.65;;
38089;SDS011;23904;52.322;10.232;2023-04-06T10:54:21;9.30;;;7.72;;
38089;SDS011;23904;52.322;10.232;2023-04-06T10:56:49;9.45;;;8.00;;
38089;SDS011;23904;52.322;10.232;2023-04-06T10:59:18;10.05;;;7.13;;
38089;SDS011;23904;52.322;10.232;2023-04-06T11:01:45;9.77;;;7.13;;
38089;SDS011;23904;52.322;10.232;2023-04-06T11:04:12;8.50;;;6.63;;
38089;SDS011;23904;52.322;10.232;2023-04-06T11:06:45;12.00;;;8.05;;
38089;SDS011;23904;52.322;10.232;2023-04-06T11:09:22;13.45;;;7.47;;
38089;SDS011;23904;52.322;10.232;2023-04-06T11:11:52;11.40;;;8.07;;
38089;SDS011;23904;52.322;10.232;2023-04-06T11:14:19;11.15;;;7.47;;
38089;SDS011;23904;52.322;10.232;2023-04-06T11:16:46;8.63;;;7.55;;
38089;SDS011;23904;52.322;10.232;2023-04-06T11:19:16;8.52;;;7.28;;
38089;SDS011;23904;52.322;10.232;2023-04-06T11:21:45;10.55;;;7.82;;
38089;SDS011;23904;52.322;10.232;2023-04-06T11:26:39;9.98;;;7.90;;
38089;SDS011;23904;52.322;10.232;2023-04-06T11:29:26;11.98;;;7.75;;
38089;SDS011;23904;52.322;10.232;2023-04-06T11:34:28;12.35;;;8.88;;
38089;SDS011;23904;52.322;10.232;2023-04-06T11:36:57;11.40;;;7.63;;
38089;SDS011;23904;52.322;10.232;2023-04-06T11:39:29;10.93;;;7.07;;
38089;SDS011;23904;52.322;10.232;2023-04-06T11:41:59;12.00;;;7.38;;
38089;SDS011;23904;52.322;10.232;2023-04-06T11:44:28;8.85;;;6.90;;
38089;SDS011;23904;52.322;10.232;2023-04-06T11:47:05;8.82;;;6.60;;
38089;SDS011;23904;52.322;10.232;2023-04-06T11:49:32;9.30;;;7.55;;
38089;SDS011;23904;52.322;10.232;2023-04-06T11:52:02;10.45;;;8.05;;
38089;SDS011;23904;52.322;10.232;2023-04-06T11:54:38;10.07;;;7.88;;
38089;SDS011;23904;52.322;10.232;2023-04-06T11:57:04;11.20;;;6.70;;
38089;SDS011;23904;52.322;10.232;2023-04-06T11:59:34;8.00;;;6.63;;
38089;SDS011;23904;52.322;10.232;2023-04-06T12:02:04;9.98;;;7.78;;
38089;SDS011;23904;52.322;10.232;2023-04-06T12:04:30;11.60;;;7.32;;
38089;SDS011;23904;52.322;10.232;2023-04-06T12:06:57;10.00;;;6.68;;
38089;SDS011;23904;52.322;10.232;2023-04-06T12:09:23;10.38;;;7.35;;
38089;SDS011;23904;52.322;10.232;2023-04-06T12:11:48;8.65;;;7.53;;
38089;SDS011;23904;52.322;10.232;2023-04-06T12:14:14;9.73;;;7.10;;
38089;SDS011;23904;52.322;10.232;2023-04-06T12:16:39;9.98;;;5.97;;
38089;SDS011;23904;52.322;10.232;2023-04-06T12:19:05;9.73;;;6.88;;
38089;SDS011;23904;52.322;10.232;2023-04-06T12:21:31;9.98;;;7.30;;
38089;SDS011;23904;52.322;10.232;2023-04-06T12:24:03;9.60;;;6.35;;
38089;SDS011;23904;52.322;10.232;2023-04-06T12:26:30;12.18;;;7.57;;
38089;SDS011;23904;52.322;10.232;2023-04-06T12:28:57;9.15;;;7.40;;
38089;SDS011;23904;52.322;10.232;2023-04-06T12:33:55;10.45;;;6.82;;
38089;SDS011;23904;52.322;10.232;2023-04-06T12:36:21;9.40;;;6.38;;
38089;SDS011;23904;52.322;10.232;2023-04-06T12:38:47;10.02;;;7.15;;
38089;SDS011;23904;52.322;10.232;2023-04-06T12:41:13;8.80;;;7.10;;
38089;SDS011;23904;52.322;10.232;2023-04-06T12:43:40;11.25;;;7.32;;
38089;SDS011;23904;52.322;10.232;2023-04-06T12:46:06;10.50;;;7.65;;
38089;SDS011;23904;52.322;10.232;2023-04-06T12:48:32;7.63;;;6.30;;
38089;SDS011;23904;52.322;10.232;2023-04-06T12:50:58;10.40;;;7.20;;
38089;SDS011;23904;52.322;10.232;2023-04-06T12:53:25;11.77;;;7.60;;
38089;SDS011;23904;52.322;10.232;2023-04-06T12:55:52;12.13;;;7.10;;
38089;SDS011;23904;52.322;10.232;2023-04-06T12:58:20;11.65;;;7.65;;
38089;SDS011;23904;52.322;10.232;2023-04-06T13:00:47;10.00;;;7.78;;
38089;SDS011;23904;52.322;10.232;2023-04-06T13:03:15;11.25;;;7.70;;
38089;SDS011;23904;52.322;10.232;2023-04-06T13:05:44;12.57;;;8.85;;
38089;SDS011;23904;52.322;10.232;2023-04-06T13:08:11;9.73;;;8.07;;
38089;SDS011;23904;52.322;10.232;2023-04-06T13:10:36;10.15;;;8.05;;
38089;SDS011;23904;52.322;10.232;2023-04-06T13:13:02;13.55;;;8.35;;
38089;SDS011;23904;52.322;10.232;2023-04-06T13:15:28;10.60;;;7.95;;
38089;SDS011;23904;52.322;10.232;2023-04-06T13:17:54;14.70;;;10.13;;
38089;SDS011;23904;52.322;10.232;2023-04-06T13:20:20;13.50;;;9.20;;
38089;SDS011;23904;52.322;10.232;2023-04-06T13:22:45;12.13;;;8.20;;
38089;SDS011;23904;52.322;10.232;2023-04-06T13:25:11;9.35;;;6.82;;
38089;SDS011;23904;52.322;10.232;2023-04-06T13:27:36;10.57;;;7.40;;
38089;SDS011;23904;52.322;10.232;2023-04-06T13:30:03;12.02;;;8.90;;
38089;SDS011;23904;52.322;10.232;2023-04-06T13:32:29;12.65;;;8.85;;
38089;SDS011;23904;52.322;10.232;2023-04-06T13:34:55;13.65;;;8.75;;
38089;SDS011;23904;52.322;10.232;2023-04-06T13:37:21;12.13;;;9.00;;
38089;SDS011;23904;52.322;10.232;2023-04-06T13:39:47;14.68;;;9.60;;
38089;SDS011;23904;52.322;10.232;2023-04-06T13:42:15;12.43;;;8.25;;
38089;SDS011;23904;52.322;10.232;2023-04-06T13:44:41;15.70;;;9.45;;
38089;SDS011;23904;52.322;10.232;2023-04-06T13:47:06;11.48;;;7.90;;
38089;SDS011;23904;52.322;10.232;2023-04-06T13:49:32;11.95;;;8.48;;
38089;SDS011;23904;52.322;10.232;2023-04-06T13:51:57;12.45;;;9.07;;
38089;SDS011;23904;52.322;10.232;2023-04-06T13:54:23;17.60;;;8.90;;
38089;SDS011;23904;52.322;10.232;2023-04-06T13:56:51;12.05;;;8.68;;
38089;SDS011;23904;52.322;10.232;2023-04-06T13:59:16;11.75;;;8.07;;
38089;SDS011;23904;52.322;10.232;2023-04-06T14:01:42;14.98;;;9.23;;
38089;SDS011;23904;52.322;10.232;2023-04-06T14:04:08;14.35;;;8.75;;
38089;SDS011;23904;52.322;10.232;2023-04-06T14:06:33;12.38;;;8.25;;
38089;SDS011;23904;52.322;10.232;2023-04-06T14:08:59;11.77;;;7.68;;
38089;SDS011;23904;52.322;10.232;2023-04-06T14:11:24;9.50;;;7.30;;
38089;SDS011;23904;52.322;10.232;2023-04-06T14:13:51;9.98;;;7.40;;
38089;SDS011;23904;52.322;10.232;2023-04-06T14:16:16;12.85;;;7.88;;
38089;SDS011;23904;52.322;10.232;2023-04-06T14:18:44;9.93;;;6.97;;
38089;SDS011;23904;52.322;10.232;2023-04-06T14:21:10;11.50;;;8.73;;
38089;SDS011;23904;52.322;10.232;2023-04-06T14:23:36;11.88;;;8.50;;
38089;SDS011;23904;52.322;10.232;2023-04-06T14:26:05;15.25;;;8.43;;
38089;SDS011;23904;52.322;10.232;2023-04-06T14:28:33;12.63;;;8.32;;
38089;SDS011;23904;52.322;10.232;2023-04-06T14:31:01;12.85;;;9.40;;
38089;SDS011;23904;52.322;10.232;2023-04-06T14:33:33;12.80;;;8.40;;
38089;SDS011;23904;52.322;10.232;2023-04-06T14:36:02;11.88;;;8.40;;